createdAt,value
2022-09-17T00:03:18.062Z,99313.25
2022-09-17T00:08:30.840Z,99310.34
2022-09-17T00:14:04.673Z,99319.97
2022-09-17T00:19:21.494Z,99329.13
2022-09-17T00:24:28.787Z,99323.72
2022-09-17T00:29:32.784Z,99324.00
2022-09-17T00:34:53.913Z,99321.03
2022-09-17T00:45:40.622Z,99322.31
2022-09-17T00:50:53.069Z,99328.41
2022-09-17T00:56:05.906Z,99326.44
2022-09-17T01:01:15.152Z,99317.56
2022-09-17T01:06:33.227Z,99325.91
2022-09-17T01:11:57.457Z,99327.56
2022-09-17T01:17:14.991Z,99333.59
2022-09-17T01:22:28.802Z,99336.38
2022-09-17T01:28:15.696Z,99331.56
2022-09-17T01:33:30.931Z,99337.63
2022-09-17T01:38:47.558Z,99332.84
2022-09-17T01:44:00.087Z,99345.66
2022-09-17T01:49:22.935Z,99348.59
2022-09-17T01:54:34.998Z,99356.31
2022-09-17T01:59:50.059Z,99356.63
2022-09-17T02:05:04.572Z,99343.59
2022-09-17T02:10:15.305Z,99358.38
2022-09-17T02:15:25.608Z,99359.53
2022-09-17T02:20:42.034Z,99356.75
2022-09-17T02:26:08.200Z,99362.72
2022-09-17T02:31:14.272Z,99360.75
2022-09-17T02:36:28.837Z,99356.97
2022-09-17T02:41:48.435Z,99355.63
2022-09-17T02:47:26.009Z,99358.72
2022-09-17T02:52:46.036Z,99361.88
2022-09-17T02:58:00.876Z,99356.47
2022-09-17T03:03:14.994Z,99371.25
2022-09-17T03:08:21.379Z,99361.59
2022-09-17T03:13:28.498Z,99367.47
2022-09-17T03:18:35.954Z,99359.59
2022-09-17T03:23:50.228Z,99368.47
2022-09-17T03:28:55.016Z,99364.56
2022-09-17T03:34:02.351Z,99371.00
2022-09-17T03:39:26.806Z,99369.81
2022-09-17T03:44:39.040Z,99361.78
2022-09-17T03:49:51.463Z,99356.50
2022-09-17T03:55:05.018Z,99360.94
2022-09-17T04:00:23.762Z,99361.78
2022-09-17T04:05:36.518Z,99365.47
2022-09-17T04:11:12.928Z,99368.09
2022-09-17T04:16:33.123Z,99358.09
2022-09-17T04:21:46.775Z,99361.06
2022-09-17T04:32:35.532Z,99374.06
2022-09-17T04:38:01.626Z,99379.31
2022-09-17T04:43:11.979Z,99379.47
2022-09-17T04:48:39.127Z,99372.75
2022-09-17T04:53:47.503Z,99377.19
2022-09-17T04:59:12.772Z,99381.44
2022-09-17T05:04:35.538Z,99382.28
2022-09-17T05:09:43.355Z,99384.91
2022-09-17T05:15:09.767Z,99387.19
2022-09-17T05:20:16.640Z,99396.06
2022-09-17T05:25:24.765Z,99396.06
2022-09-17T05:30:43.024Z,99399.00
2022-09-17T05:35:51.752Z,99404.75
2022-09-17T05:40:58.314Z,99408.84
2022-09-17T05:47:06.944Z,99412.75
2022-09-17T05:52:23.627Z,99428.84
2022-09-17T05:57:31.893Z,99426.50
2022-09-17T06:02:42.416Z,99438.47
2022-09-17T06:07:51.684Z,99439.38
2022-09-17T06:13:22.122Z,99444.06
2022-09-17T06:18:41.564Z,99448.53
2022-09-17T06:23:48.552Z,99455.88
2022-09-17T06:29:16.530Z,99450.59
2022-09-17T06:34:28.048Z,99455.13
2022-09-17T06:40:00.198Z,99450.63
2022-09-17T06:45:14.466Z,99455.41
2022-09-17T06:50:32.788Z,99460.00
2022-09-17T06:55:46.885Z,99460.25
2022-09-17T07:00:58.292Z,99446.59
2022-09-17T07:06:26.390Z,99443.09
2022-09-17T07:11:34.031Z,99448.81
2022-09-17T07:17:00.521Z,99447.97
2022-09-17T07:22:07.309Z,99451.72
2022-09-17T07:27:20.918Z,99443.34
2022-09-17T07:32:28.647Z,99447.19
2022-09-17T07:37:42.645Z,99449.09
2022-09-17T07:42:52.835Z,99446.56
2022-09-17T07:48:31.997Z,99433.88
2022-09-17T07:54:03.869Z,99462.59
2022-09-17T07:59:13.397Z,99470.06
2022-09-17T08:04:17.422Z,99470.69
2022-09-17T08:09:26.792Z,99471.97
2022-09-17T08:20:04.063Z,99466.88
2022-09-17T08:25:47.119Z,99492.34
2022-09-17T08:30:52.104Z,99488.00
2022-09-17T08:35:59.912Z,99494.47
2022-09-17T08:41:26.208Z,99504.16
2022-09-17T08:46:33.863Z,99506.19
2022-09-17T08:51:46.745Z,99501.41
2022-09-17T08:57:10.546Z,99514.66
2022-09-17T09:02:30.141Z,99521.03
2022-09-17T09:07:48.606Z,99533.44
2022-09-17T09:13:01.031Z,99540.00
2022-09-17T09:18:26.060Z,99537.44
2022-09-17T09:24:04.042Z,99540.72
2022-09-17T09:29:23.219Z,99543.34
2022-09-17T09:34:46.433Z,99546.13
2022-09-17T09:39:59.807Z,99542.13
2022-09-17T09:45:20.588Z,99542.59
2022-09-17T09:51:06.303Z,99553.53
2022-09-17T09:56:47.808Z,99547.34
2022-09-17T10:01:58.278Z,99550.50
2022-09-17T10:07:15.023Z,99544.19
2022-09-17T10:12:26.559Z,99537.00
2022-09-17T10:17:45.182Z,99537.28
2022-09-17T10:22:56.100Z,99537.44
2022-09-17T10:28:06.109Z,99531.97
2022-09-17T10:33:29.901Z,99540.59
2022-09-17T10:39:06.544Z,99536.69
2022-09-17T10:44:22.583Z,99522.41
2022-09-17T10:49:43.577Z,99510.47
2022-09-17T10:55:26.059Z,99502.38
2022-09-17T11:00:48.243Z,99506.53
2022-09-17T11:06:24.745Z,99509.84
2022-09-17T11:11:46.922Z,99506.94
2022-09-17T11:17:29.548Z,99519.91
2022-09-17T11:23:09.111Z,99545.06
2022-09-17T11:28:42.979Z,99560.06
2022-09-17T11:34:23.107Z,99546.88
2022-09-17T11:39:40.939Z,99540.66
2022-09-17T11:44:56.508Z,99537.09
2022-09-17T11:50:16.043Z,99523.69
2022-09-17T11:55:34.238Z,99521.28
2022-09-17T12:00:50.401Z,99506.25
2022-09-17T12:06:03.076Z,99490.97
2022-09-17T12:11:17.736Z,99484.13
2022-09-17T12:16:32.362Z,99477.69
2022-09-17T12:21:46.300Z,99465.78
2022-09-17T12:27:30.846Z,99463.19
2022-09-17T12:32:58.589Z,99469.66
2022-09-17T12:38:23.132Z,99453.06
2022-09-17T12:44:27.055Z,99457.25
2022-09-17T12:49:54.820Z,99458.13
2022-09-17T12:55:23.980Z,99455.81
2022-09-17T13:00:39.536Z,99446.69
2022-09-17T13:06:03.962Z,99441.19
2022-09-17T13:11:59.293Z,99461.16
2022-09-17T13:17:14.515Z,99461.22
2022-09-17T13:22:23.072Z,99431.44
2022-09-17T13:27:36.059Z,99433.47
2022-09-17T13:32:55.303Z,99438.84
2022-09-17T13:38:05.477Z,99439.28
2022-09-17T13:43:19.523Z,99435.66
2022-09-17T13:48:36.048Z,99438.16
2022-09-17T13:54:10.659Z,99438.09
2022-09-17T13:59:23.113Z,99445.44
2022-09-17T14:10:49.297Z,99415.19
2022-09-17T14:16:11.314Z,99403.81
2022-09-17T14:21:36.227Z,99410.34
2022-09-17T14:26:58.322Z,99403.84
2022-09-17T14:32:06.337Z,99409.72
2022-09-17T14:37:19.032Z,99422.53
2022-09-17T14:42:42.775Z,99415.00
2022-09-17T14:47:57.429Z,99417.06
2022-09-17T14:53:17.916Z,99424.81
2022-09-17T14:58:46.440Z,99420.34
2022-09-17T15:03:54.768Z,99424.59
2022-09-17T15:09:05.751Z,99417.44
2022-09-17T15:14:25.429Z,99413.34
2022-09-17T15:19:41.067Z,99414.69
2022-09-17T15:24:51.852Z,99413.34
2022-09-17T15:30:05.001Z,99408.59
2022-09-17T15:35:20.501Z,99416.66
2022-09-17T15:40:33.127Z,99427.97
2022-09-17T15:45:43.094Z,99430.34
2022-09-17T15:51:05.374Z,99421.47
2022-09-17T15:56:32.684Z,99434.06
2022-09-17T16:02:00.491Z,99428.91
2022-09-17T16:07:34.827Z,99442.59
2022-09-17T16:12:49.493Z,99441.66
2022-09-17T16:17:57.866Z,99460.63
2022-09-17T16:23:02.920Z,99468.84
2022-09-17T16:28:15.480Z,99471.94
2022-09-17T16:33:29.138Z,99472.06
2022-09-17T16:38:52.390Z,99472.34
2022-09-17T16:44:04.091Z,99485.63
2022-09-17T16:49:13.869Z,99507.91
2022-09-17T16:54:32.298Z,99508.28
2022-09-17T16:59:58.755Z,99512.69
2022-09-17T17:05:09.734Z,99483.78
2022-09-17T17:10:28.087Z,99468.00
2022-09-17T17:15:40.298Z,99479.78
2022-09-17T17:20:48.392Z,99482.88
2022-09-17T17:25:57.066Z,99488.31
2022-09-17T17:31:08.486Z,99493.00
2022-09-17T17:36:23.693Z,99499.16
2022-09-17T17:41:36.654Z,99499.22
2022-09-17T17:46:44.534Z,99504.72
2022-09-17T17:51:54.941Z,99504.72
2022-09-17T17:57:12.149Z,99512.19
2022-09-17T18:02:24.568Z,99512.03
2022-09-17T18:07:31.796Z,99514.06
2022-09-17T18:12:38.311Z,99516.00
2022-09-17T18:17:53.164Z,99504.34
2022-09-17T18:23:04.402Z,99516.69
2022-09-17T18:28:08.778Z,99505.88
2022-09-17T18:33:15.246Z,99509.34
2022-09-17T18:38:28.464Z,99521.81
2022-09-17T18:43:35.599Z,99537.59
2022-09-17T18:48:48.533Z,99542.69
2022-09-17T18:53:59.212Z,99537.91
2022-09-17T18:59:09.912Z,99526.94
2022-09-17T19:04:19.054Z,99510.19
2022-09-17T19:09:27.891Z,99518.56
2022-09-17T19:14:34.378Z,99532.97
2022-09-17T19:19:39.454Z,99525.91
2022-09-17T19:24:48.870Z,99515.22
2022-09-17T19:29:53.449Z,99507.78
2022-09-17T19:35:03.411Z,99514.50
2022-09-17T19:40:22.135Z,99499.75
2022-09-17T19:45:28.930Z,99502.00
2022-09-17T19:50:37.651Z,99506.25
2022-09-17T19:55:53.041Z,99510.00
2022-09-17T20:01:06.254Z,99503.59
2022-09-17T20:06:16.120Z,99513.09
2022-09-17T20:11:32.433Z,99511.78
2022-09-17T20:16:50.419Z,99509.75
2022-09-17T20:22:10.499Z,99515.84
2022-09-17T20:27:24.292Z,99513.53
2022-09-17T20:32:35.003Z,99518.41
2022-09-17T20:38:33.391Z,99514.84
2022-09-17T20:43:09.390Z,99523.81
2022-09-17T20:48:17.325Z,99511.69
2022-09-17T20:53:22.274Z,99507.75
2022-09-17T20:58:43.075Z,99513.97
2022-09-17T21:03:52.054Z,99515.63
2022-09-17T21:09:03.098Z,99519.34
2022-09-17T21:14:12.205Z,99518.84
2022-09-17T21:19:23.240Z,99509.19
2022-09-17T21:24:30.382Z,99511.28
2022-09-17T21:29:40.832Z,99506.38
2022-09-17T21:34:47.714Z,99510.13
2022-09-17T21:39:56.499Z,99508.34
2022-09-17T21:45:04.001Z,99509.31
2022-09-17T21:50:11.428Z,99520.78
2022-09-17T21:55:16.253Z,99505.06
2022-09-17T22:00:28.655Z,99504.28
2022-09-17T22:05:37.862Z,99499.03
2022-09-17T22:10:53.613Z,99501.34
2022-09-17T22:16:23.113Z,99483.97
2022-09-17T22:21:30.215Z,99483.25
2022-09-17T22:26:38.208Z,99489.63
2022-09-17T22:31:48.948Z,99489.34
2022-09-17T22:37:02.273Z,99496.53
2022-09-17T22:42:14.135Z,99494.84
2022-09-17T22:47:27.713Z,99508.34
2022-09-17T22:52:33.796Z,99507.34
2022-09-17T22:57:38.726Z,99498.84
2022-09-17T23:03:06.695Z,99507.88
2022-09-17T23:08:15.562Z,99501.66
2022-09-17T23:13:23.904Z,99505.09
2022-09-17T23:18:50.422Z,99503.97
2022-09-17T23:24:07.193Z,99508.03
2022-09-17T23:29:27.061Z,99513.97
2022-09-17T23:34:50.986Z,99528.53
2022-09-17T23:40:00.455Z,99520.69
2022-09-17T23:45:07.793Z,99528.88
2022-09-17T23:50:48.037Z,99526.13
2022-09-17T23:55:58.190Z,99526.97
